New Britain, CT (06050)

2:47 AM EST on February 28, 2017 (GMT -0500)
CCSU Campus | | Change Station
Active Advisory: Flood Warning

Elev 131 ft 41.69 °N, 72.76 °W | Updated 23 hours ago

Overcast
Overcast
29.9 °F
Feels Like 30 °F
N
0.0
Wind Variable Wind from WSW
Gusts 0.0 mph

Today
High -- | Low -- °F
--% Chance of Precip.
Yesterday
High -- | Low -- °F
Precip. -- in
Pressure 30.39 in
Visibility 10.0 miles
Clouds Overcast 7500 ft
Windchill 30 °F
Dew Point 20 °F
Humidity 65%
Rainfall 0.00 in
Snow Depth Not available.
6:27 AM 5:40 PM
Waxing Crescent, 4% visible
METAR KHFD 280653Z AUTO 20005KT 10SM OVC075 04/01 A3039 RMK AO2 SLP291 T00440006
Pressure 30.39 in
Visibility 10.0 miles
Clouds Overcast 7500 ft
Windchill 30 °F
Dew Point 20 °F
Humidity 65%
Rainfall 0.00 in
Snow Depth Not available.
6:27 AM 5:40 PM
Waxing Crescent, 4% visible
METAR KHFD 280653Z AUTO 20005KT 10SM OVC075 04/01 A3039 RMK AO2 SLP291 T00440006

Get Your Daily Forecast Email!

Thanks for signing up!

Be on the lookout for a verification email in your inbox.

You'll start receiving the daily forecast at 8 AM.

×

10-Day Weather Forecast

Almanac

Astronomy

Feb. 28, 2017 Rise Set
Actual Time
Civil Twilight
Nautical Twilight
Astronomical Twilight
Moon
Length of Visible Light
Length of Day
Tomorrow will be .
, % of the Moon is Illuminated

Today's Extremes

State Highs State Lows

Community

WunderPhotos

Upload Photos

1,962,540 photos uploaded!

WunderBlog® & News

Nearby

Air Quality

  Air Quality AQ Index Pollutant
Not available.

Snow Depth

Station Depth Elevation

Earthquake Activity

City Distance Mag. Time & Date
Minimum magnitude displayed is 2.5.

Coastal Water Temperatures

Place Temperature

Stations

Nearby Weather Stations

Station Location Temp. Windchill Dew Point Humidity Wind Precip. Elev Updated Type
                   

Watches & Warnings

Flood Warning
Issued: 8:34 PM EST Feb. 27, 2017 – National Weather Service

The Flood Warning continues for
the Connecticut River at Hartford.
* Until Tuesday morning... or until the warning is cancelled.
* At 8:00 PM Monday the stage was 16.0 feet.
* Flood stage is 16.0 feet.
* Minor flooding is forecast.
* Forecast... hold near flood stage this evening and continue at
16.0 feet through the overnight.The river will fall below flood
stage by early tomorrow.
* Impact... at 16.0 feet... minor flooding is expected in several low
lying areas outside levee protection in Hartford, as well as
downstream through Wethersfield and Glastonbury. Further downstream
flooding is likely in the vicinity of Meadow Road, Route 17a, in
the Gildersleeve section of Portland. A portion of this roadway
will likely be closed. This includes the exchange club of Portland
Fairgrounds. Boating interests should prepare for a period of swift
river flows during this period.


Lat... Lon 4163 7270 4180 7273 4180 7259 4164 7258
      4163 7263 4164 7263